Time;durP1;ratioP1;P1;durP2;ratioP2;P2;SDS_P1;SDS_P2;PMS_P1;PMS_P2;Temp;Humidity;BMP_temperature;BMP_pressure;BME280_temperature;BME280_humidity;BME280_pressure;Samples;Min_cycle;Max_cycle;Signal;HPM_P1;HPM_P2
2022/01/25 00:08:23;;;;;;;5.47;4.97;;;;;;;;;;5022514;28;20519;-59
2022/01/25 00:24:12;;;;;;;4.65;4.25;;;;;;;;;;5021027;28;20034;-57
2022/01/25 00:26:24;;;;;;;4.70;4.28;;;;;;;;;;5019459;28;20069;-58
2022/01/25 00:29:05;;;;;;;5.30;4.43;;;;;;;;;;5021061;28;20061;-58
2022/01/25 00:31:33;;;;;;;4.97;4.57;;;;;;;;;;5020229;28;20037;-57
2022/01/25 00:33:58;;;;;;;5.10;4.63;;;;;;;;;;5021953;28;20531;-57
2022/01/25 00:36:25;;;;;;;4.60;4.00;;;;;;;;;;5021130;28;20120;-57
2022/01/25 00:38:51;;;;;;;4.60;4.05;;;;;;;;;;5021833;28;20033;-58
2022/01/25 00:41:19;;;;;;;5.53;5.03;;;;;;;;;;5020446;28;20103;-58
2022/01/25 00:43:45;;;;;;;6.65;5.20;;;;;;;;;;5022515;28;20033;-58
2022/01/25 00:46:12;;;;;;;4.90;4.43;;;;;;;;;;5019407;28;20550;-58
2022/01/25 00:53:58;;;;;;;4.57;4.15;;;;;;;;;;5022937;28;20490;-58
2022/01/25 00:56:27;;;;;;;4.35;3.95;;;;;;;;;;5022329;28;20041;-59
2022/01/25 00:58:53;;;;;;;5.25;4.75;;;;;;;;;;5018964;28;20026;-59
2022/01/25 01:01:20;;;;;;;5.57;5.00;;;;;;;;;;5019582;28;20037;-59
2022/01/25 01:03:45;;;;;;;4.95;4.45;;;;;;;;;;5023735;28;20375;-59
2022/01/25 01:06:11;;;;;;;5.05;4.55;;;;;;;;;;5019125;28;20025;-59
2022/01/25 01:08:36;;;;;;;5.63;4.65;;;;;;;;;;5020404;28;20374;-59
2022/01/25 01:11:06;;;;;;;5.03;4.53;;;;;;;;;;5019860;28;20025;-59
2022/01/25 01:30:33;;;;;;;5.47;4.78;;;;;;;;;;5020039;28;20030;-63
2022/01/25 01:35:46;;;;;;;6.15;4.90;;;;;;;;;;5019888;28;20037;-59
2022/01/25 01:43:55;;;;;;;6.55;5.85;;;;;;;;;;5016562;28;20037;-59
2022/01/25 01:46:37;;;;;;;5.22;4.72;;;;;;;;;;5021663;28;20084;-58
2022/01/25 01:49:05;;;;;;;4.55;4.13;;;;;;;;;;5026657;28;20040;-59
2022/01/25 01:51:35;;;;;;;6.05;5.38;;;;;;;;;;5019285;28;20118;-59
2022/01/25 01:54:08;;;;;;;4.78;4.38;;;;;;;;;;5019383;28;20033;-58
2022/01/25 01:56:36;;;;;;;5.70;5.20;;;;;;;;;;5019354;28;20073;-59
2022/01/25 01:59:05;;;;;;;6.22;4.85;;;;;;;;;;5019832;28;20026;-59
2022/01/25 02:01:31;;;;;;;5.35;4.85;;;;;;;;;;5019412;28;20108;-59
2022/01/25 02:03:58;;;;;;;5.85;5.25;;;;;;;;;;5035294;28;20049;-59
2022/01/25 02:06:24;;;;;;;5.32;4.82;;;;;;;;;;5015551;28;20021;-59
2022/01/25 02:08:49;;;;;;;7.63;5.40;;;;;;;;;;5018279;28;20037;-58
2022/01/25 02:11:16;;;;;;;6.88;5.15;;;;;;;;;;5015980;28;20029;-60
2022/01/25 02:13:42;;;;;;;7.90;5.32;;;;;;;;;;5019207;28;20061;-59
2022/01/25 02:16:14;;;;;;;6.53;5.72;;;;;;;;;;5015917;28;20021;-58
2022/01/25 02:24:07;;;;;;;4.93;4.53;;;;;;;;;;5017180;28;20030;-59
2022/01/25 02:26:33;;;;;;;5.25;4.78;;;;;;;;;;5020951;28;20444;-59
2022/01/25 02:28:58;;;;;;;5.53;4.88;;;;;;;;;;5016550;28;20029;-58
2022/01/25 02:31:23;;;;;;;5.35;4.85;;;;;;;;;;5017529;28;20030;-58
2022/01/25 02:33:49;;;;;;;5.32;4.82;;;;;;;;;;5020124;28;20044;-58
2022/01/25 02:36:26;;;;;;;8.32;5.22;;;;;;;;;;5018551;28;20034;-58
2022/01/25 02:38:52;;;;;;;5.57;5.07;;;;;;;;;;5026237;28;20759;-59
2022/01/25 02:41:18;;;;;;;6.10;5.38;;;;;;;;;;5019351;28;20052;-59
2022/01/25 02:43:46;;;;;;;5.28;4.78;;;;;;;;;;5017911;28;20037;-59
2022/01/25 02:49:05;;;;;;;6.22;5.68;;;;;;;;;;5016529;28;20044;-59
2022/01/25 02:51:34;;;;;;;9.50;5.07;;;;;;;;;;5016121;28;20053;-59
2022/01/25 02:54:00;;;;;;;5.05;4.55;;;;;;;;;;5018843;28;20017;-59
2022/01/25 02:56:27;;;;;;;5.18;4.53;;;;;;;;;;5017543;28;20065;-59
2022/01/25 02:58:53;;;;;;;4.30;3.92;;;;;;;;;;5016607;28;20034;-59
2022/01/25 03:01:21;;;;;;;6.10;5.50;;;;;;;;;;5020114;28;20033;-59
2022/01/25 03:03:47;;;;;;;4.88;4.38;;;;;;;;;;5016417;28;20057;-58
2022/01/25 03:06:17;;;;;;;6.70;5.15;;;;;;;;;;5019989;28;20026;-59
2022/01/25 03:08:44;;;;;;;9.05;4.35;;;;;;;;;;5020998;28;20052;-59
2022/01/25 03:11:09;;;;;;;6.22;5.63;;;;;;;;;;5016981;28;20043;-59
2022/01/25 03:13:48;;;;;;;10.18;5.13;;;;;;;;;;5018743;28;20034;-59
2022/01/25 03:16:28;;;;;;;5.32;4.82;;;;;;;;;;5019064;28;20030;-59
2022/01/25 03:18:56;;;;;;;7.35;4.78;;;;;;;;;;5020050;28;20407;-59
2022/01/25 03:23:48;;;;;;;4.68;4.28;;;;;;;;;;5025264;28;20080;-59
2022/01/25 03:26:14;;;;;;;6.00;5.43;;;;;;;;;;5017275;28;20468;-59
2022/01/25 03:28:39;;;;;;;4.82;4.32;;;;;;;;;;5018690;28;20060;-59
2022/01/25 03:31:05;;;;;;;5.95;4.72;;;;;;;;;;5021726;28;20030;-59
2022/01/25 03:33:30;;;;;;;6.18;5.40;;;;;;;;;;5024031;28;20041;-60
2022/01/25 03:35:56;;;;;;;6.05;5.13;;;;;;;;;;5020196;28;20035;-60
2022/01/25 03:38:22;;;;;;;4.75;4.35;;;;;;;;;;5020528;28;20042;-59
2022/01/25 03:40:47;;;;;;;4.63;4.22;;;;;;;;;;5020382;28;20034;-59
2022/01/25 03:43:15;;;;;;;5.88;4.75;;;;;;;;;;5022379;28;20455;-60
2022/01/25 03:45:43;;;;;;;6.88;5.53;;;;;;;;;;5037281;28;20037;-58
2022/01/25 03:50:41;;;;;;;7.65;5.43;;;;;;;;;;5019962;28;20096;-58
2022/01/25 03:53:08;;;;;;;4.90;4.40;;;;;;;;;;5023783;28;20037;-58
2022/01/25 03:55:34;;;;;;;9.45;6.88;;;;;;;;;;5018691;28;20378;-58
2022/01/25 03:57:59;;;;;;;5.00;4.38;;;;;;;;;;5021841;28;20080;-62
2022/01/25 04:00:25;;;;;;;5.18;4.78;;;;;;;;;;5022116;28;20092;-58
2022/01/25 04:02:56;;;;;;;5.70;5.15;;;;;;;;;;5021260;28;20344;-58
2022/01/25 04:05:33;;;;;;;5.75;5.05;;;;;;;;;;5022332;28;20039;-58
2022/01/25 04:07:58;;;;;;;5.25;4.75;;;;;;;;;;5019964;28;20864;-58
2022/01/25 04:10:24;;;;;;;5.80;4.80;;;;;;;;;;5021564;28;20041;-59
2022/01/25 04:12:49;;;;;;;5.82;5.28;;;;;;;;;;5021994;28;20474;-59
2022/01/25 04:15:15;;;;;;;4.68;4.28;;;;;;;;;;5021596;28;20526;-59
2022/01/25 04:17:44;;;;;;;17.85;4.80;;;;;;;;;;5021261;28;20430;-59
2022/01/25 04:25:22;;;;;;;6.55;5.15;;;;;;;;;;5021674;28;20029;-59
2022/01/25 04:27:48;;;;;;;5.18;4.65;;;;;;;;;;5021906;28;20034;-59
2022/01/25 04:30:13;;;;;;;11.98;5.38;;;;;;;;;;5018614;28;20490;-59
2022/01/25 04:32:48;;;;;;;6.03;5.07;;;;;;;;;;5019536;28;20049;-59
2022/01/25 04:57:36;;;;;;;6.20;5.03;;;;;;;;;;5021717;28;20495;-59
2022/01/25 05:00:09;;;;;;;5.72;5.10;;;;;;;;;;5020564;28;20056;-59
2022/01/25 05:02:46;;;;;;;4.85;3.97;;;;;;;;;;5017410;28;20045;-59
2022/01/25 05:07:57;;;;;;;5.18;4.60;;;;;;;;;;5018161;28;20439;-59
2022/01/25 05:10:23;;;;;;;5.18;4.47;;;;;;;;;;5018489;28;20030;-60
2022/01/25 05:13:08;;;;;;;5.00;4.55;;;;;;;;;;5014859;28;20100;-59
2022/01/25 05:16:05;;;;;;;4.45;4.00;;;;;;;;;;5019165;28;20066;-60
2022/01/25 05:18:36;;;;;;;6.28;5.65;;;;;;;;;;5020412;28;20065;-59
2022/01/25 05:23:46;;;;;;;5.30;4.80;;;;;;;;;;5021836;28;20022;-59
2022/01/25 05:26:11;;;;;;;5.57;4.63;;;;;;;;;;5019719;28;20033;-59
2022/01/25 05:28:36;;;;;;;6.32;5.45;;;;;;;;;;5018963;28;20037;-59
2022/01/25 05:31:02;;;;;;;5.43;4.75;;;;;;;;;;5020228;28;20025;-61
2022/01/25 05:33:27;;;;;;;9.05;5.43;;;;;;;;;;5018390;28;20037;-61
2022/01/25 05:35:53;;;;;;;4.68;4.28;;;;;;;;;;5019345;28;20468;-60
2022/01/25 05:38:18;;;;;;;6.47;5.13;;;;;;;;;;5019998;28;20112;-60
2022/01/25 05:45:56;;;;;;;11.77;4.50;;;;;;;;;;5018623;28;20034;-60
2022/01/25 05:48:22;;;;;;;5.75;5.15;;;;;;;;;;5020714;28;20041;-60
2022/01/25 05:50:47;;;;;;;5.00;4.55;;;;;;;;;;5017648;28;20371;-60
2022/01/25 05:53:13;;;;;;;4.88;4.45;;;;;;;;;;5020350;28;20026;-60
2022/01/25 05:55:38;;;;;;;6.50;5.05;;;;;;;;;;5022459;28;20123;-60
2022/01/25 05:58:03;;;;;;;4.45;4.05;;;;;;;;;;5018157;28;20037;-60
2022/01/25 06:00:29;;;;;;;5.70;5.10;;;;;;;;;;5021321;28;20030;-60
2022/01/25 06:02:56;;;;;;;4.80;4.40;;;;;;;;;;5017352;28;20096;-60
2022/01/25 06:05:23;;;;;;;7.78;5.30;;;;;;;;;;5019099;28;20056;-60
2022/01/25 06:07:49;;;;;;;5.10;4.60;;;;;;;;;;5021813;28;20029;-61
2022/01/25 06:10:15;;;;;;;6.55;5.78;;;;;;;;;;5020357;28;20112;-59
2022/01/25 06:12:42;;;;;;;5.82;5.32;;;;;;;;;;5019780;28;20116;-60
2022/01/25 06:15:08;;;;;;;5.93;4.55;;;;;;;;;;5019336;28;20045;-59
2022/01/25 06:17:33;;;;;;;6.75;5.55;;;;;;;;;;5016033;28;20033;-59
2022/01/25 06:19:59;;;;;;;5.63;5.10;;;;;;;;;;5018924;28;20032;-59
2022/01/25 06:22:24;;;;;;;6.15;5.60;;;;;;;;;;5016966;28;20510;-59
2022/01/25 06:24:49;;;;;;;6.28;5.65;;;;;;;;;;5017930;28;20037;-59
2022/01/25 06:27:15;;;;;;;6.88;5.93;;;;;;;;;;5017635;28;20034;-59
2022/01/25 06:29:41;;;;;;;7.18;6.10;;;;;;;;;;5018531;28;20494;-59
2022/01/25 06:32:06;;;;;;;7.47;5.78;;;;;;;;;;5019937;28;20128;-59
2022/01/25 06:34:32;;;;;;;5.65;5.15;;;;;;;;;;5017015;28;20033;-59
2022/01/25 06:36:57;;;;;;;7.97;6.82;;;;;;;;;;5017871;28;20069;-59
2022/01/25 06:39:23;;;;;;;6.22;5.63;;;;;;;;;;5019725;28;20112;-61
2022/01/25 06:41:48;;;;;;;6.57;5.97;;;;;;;;;;5017396;28;20041;-60
2022/01/25 06:44:14;;;;;;;5.40;4.97;;;;;;;;;;5018761;28;20026;-60
2022/01/25 06:46:39;;;;;;;6.15;5.32;;;;;;;;;;5019670;28;20026;-60
2022/01/25 06:49:04;;;;;;;13.70;5.38;;;;;;;;;;5020537;28;20104;-61
2022/01/25 06:51:30;;;;;;;7.68;5.65;;;;;;;;;;5019001;28;20069;-61
2022/01/25 06:53:56;;;;;;;5.75;5.15;;;;;;;;;;5022457;28;20066;-60
2022/01/25 06:56:22;;;;;;;6.68;5.45;;;;;;;;;;5021106;28;20034;-60
2022/01/25 06:58:47;;;;;;;6.30;3.95;;;;;;;;;;5023884;28;20438;-63
2022/01/25 07:01:13;;;;;;;5.20;4.70;;;;;;;;;;5025916;28;20048;-61
2022/01/25 07:03:39;;;;;;;6.00;5.15;;;;;;;;;;5021844;28;20030;-62
2022/01/25 07:06:04;;;;;;;6.35;5.78;;;;;;;;;;5029417;28;20088;-62
2022/01/25 07:08:29;;;;;;;5.25;4.75;;;;;;;;;;5019443;28;20466;-62
2022/01/25 07:10:55;;;;;;;10.10;5.63;;;;;;;;;;5021890;28;20460;-61
2022/01/25 07:13:20;;;;;;;6.57;5.82;;;;;;;;;;5024775;28;20371;-61
2022/01/25 07:15:46;;;;;;;4.47;4.07;;;;;;;;;;5022624;28;20442;-61
2022/01/25 07:18:11;;;;;;;5.97;5.15;;;;;;;;;;5023824;28;20029;-62
2022/01/25 07:20:37;;;;;;;6.57;4.70;;;;;;;;;;5037460;28;20052;-61
2022/01/25 07:23:02;;;;;;;5.10;4.70;;;;;;;;;;5024156;28;20057;-61
2022/01/25 07:25:27;;;;;;;6.35;5.80;;;;;;;;;;5021458;28;20348;-61
2022/01/25 07:27:53;;;;;;;7.32;6.60;;;;;;;;;;5021420;28;20084;-61
2022/01/25 07:30:18;;;;;;;4.35;3.95;;;;;;;;;;5022660;28;20026;-62
2022/01/25 07:32:44;;;;;;;9.13;7.78;;;;;;;;;;5020393;28;20045;-62
2022/01/25 07:35:09;;;;;;;6.72;5.88;;;;;;;;;;5020735;28;20049;-62
2022/01/25 07:37:35;;;;;;;5.50;5.00;;;;;;;;;;5018192;28;20110;-62
2022/01/25 07:40:00;;;;;;;6.97;5.50;;;;;;;;;;5021981;28;20106;-62
2022/01/25 07:42:28;;;;;;;11.07;6.78;;;;;;;;;;5021151;28;20069;-62
2022/01/25 07:44:55;;;;;;;8.18;6.05;;;;;;;;;;5022891;28;20108;-62
2022/01/25 07:47:20;;;;;;;7.00;5.93;;;;;;;;;;5019981;28;20434;-61
2022/01/25 07:49:45;;;;;;;8.77;5.43;;;;;;;;;;5020604;28;20036;-61
2022/01/25 07:52:11;;;;;;;6.03;5.10;;;;;;;;;;5021383;28;20435;-61
2022/01/25 07:54:36;;;;;;;5.57;5.07;;;;;;;;;;5021582;28;20375;-61
2022/01/25 07:57:02;;;;;;;5.30;4.80;;;;;;;;;;5019865;28;20029;-61
2022/01/25 07:59:27;;;;;;;5.25;4.75;;;;;;;;;;5018614;28;20048;-61
2022/01/25 08:01:53;;;;;;;8.00;5.55;;;;;;;;;;5019591;28;20368;-61
2022/01/25 08:04:18;;;;;;;6.25;5.07;;;;;;;;;;5021847;28;20037;-62
2022/01/25 08:06:44;;;;;;;4.85;4.43;;;;;;;;;;5024118;28;20029;-61
2022/01/25 08:09:10;;;;;;;5.03;4.50;;;;;;;;;;5021043;28;20066;-62
2022/01/25 08:11:36;;;;;;;7.63;5.88;;;;;;;;;;5021228;28;20427;-62
2022/01/25 08:14:15;;;;;;;9.55;6.32;;;;;;;;;;5021654;28;20057;-61
2022/01/25 08:16:43;;;;;;;6.18;5.13;;;;;;;;;;5021610;28;20482;-61
2022/01/25 08:19:10;;;;;;;4.72;4.22;;;;;;;;;;5020782;28;20062;-59
2022/01/25 08:21:36;;;;;;;6.22;5.57;;;;;;;;;;5022041;28;20033;-59
2022/01/25 08:24:05;;;;;;;5.30;4.68;;;;;;;;;;5021143;28;20080;-59
2022/01/25 08:26:30;;;;;;;6.78;5.25;;;;;;;;;;5020635;28;20058;-61
2022/01/25 08:28:56;;;;;;;6.60;5.60;;;;;;;;;;5024122;28;20053;-59
2022/01/25 08:31:21;;;;;;;7.65;5.70;;;;;;;;;;5018744;28;20115;-58
2022/01/25 08:33:47;;;;;;;7.32;5.07;;;;;;;;;;5018851;28;20069;-58
2022/01/25 08:36:13;;;;;;;7.25;6.07;;;;;;;;;;5019352;28;20048;-58
2022/01/25 08:38:38;;;;;;;28.63;5.32;;;;;;;;;;5020009;28;20041;-59
2022/01/25 08:41:06;;;;;;;5.05;4.55;;;;;;;;;;5018170;28;20037;-58
2022/01/25 08:43:34;;;;;;;5.47;4.97;;;;;;;;;;5019741;28;20045;-59
2022/01/25 08:46:01;;;;;;;5.38;4.60;;;;;;;;;;5022322;28;20284;-59
2022/01/25 08:48:26;;;;;;;4.93;4.53;;;;;;;;;;5018375;28;20044;-59
2022/01/25 08:50:52;;;;;;;5.25;4.45;;;;;;;;;;5018579;28;20363;-59
2022/01/25 08:53:17;;;;;;;5.75;5.25;;;;;;;;;;5015569;28;20784;-60
2022/01/25 08:55:43;;;;;;;5.40;4.88;;;;;;;;;;5019064;28;20977;-59
2022/01/25 08:58:09;;;;;;;6.82;4.90;;;;;;;;;;5016387;28;20112;-60
2022/01/25 09:00:34;;;;;;;6.20;5.60;;;;;;;;;;5015953;28;20037;-59
2022/01/25 09:03:00;;;;;;;6.07;5.47;;;;;;;;;;5017736;28;20041;-59
2022/01/25 09:05:26;;;;;;;4.47;4.07;;;;;;;;;;5017720;28;20030;-60
2022/01/25 09:07:52;;;;;;;10.32;6.38;;;;;;;;;;5017594;28;20087;-63
2022/01/25 09:10:17;;;;;;;7.40;5.78;;;;;;;;;;5020270;28;20029;-62
2022/01/25 09:12:43;;;;;;;6.18;5.53;;;;;;;;;;5017532;28;20455;-62
2022/01/25 09:15:09;;;;;;;5.60;4.95;;;;;;;;;;5015169;28;20489;-61
2022/01/25 09:17:34;;;;;;;6.07;5.30;;;;;;;;;;5015468;28;20690;-64
2022/01/25 09:20:02;;;;;;;5.78;5.20;;;;;;;;;;5017793;28;20044;-62
2022/01/25 09:22:27;;;;;;;5.25;4.75;;;;;;;;;;5013951;28;20029;-62
2022/01/25 09:24:52;;;;;;;8.35;5.80;;;;;;;;;;5017341;28;20040;-62
2022/01/25 09:27:18;;;;;;;5.10;4.60;;;;;;;;;;5017109;28;20125;-62
2022/01/25 09:29:43;;;;;;;10.25;6.55;;;;;;;;;;5015691;28;20044;-63
2022/01/25 09:32:09;;;;;;;5.30;4.80;;;;;;;;;;5014647;28;20034;-62
2022/01/25 09:34:34;;;;;;;10.63;5.78;;;;;;;;;;5016754;28;20450;-62
2022/01/25 09:37:00;;;;;;;5.85;5.30;;;;;;;;;;5015279;28;20058;-61
2022/01/25 09:39:25;;;;;;;5.80;5.20;;;;;;;;;;5017266;28;20030;-62
2022/01/25 09:41:52;;;;;;;5.57;5.05;;;;;;;;;;5013876;28;20029;-61
2022/01/25 09:44:18;;;;;;;6.13;5.53;;;;;;;;;;5014866;28;20129;-59
2022/01/25 09:46:44;;;;;;;5.32;4.82;;;;;;;;;;5014046;28;20163;-59
2022/01/25 09:49:11;;;;;;;6.22;5.60;;;;;;;;;;5015280;28;20045;-59
2022/01/25 09:51:41;;;;;;;6.30;5.68;;;;;;;;;;5016527;28;20049;-58
2022/01/25 09:54:07;;;;;;;5.35;4.85;;;;;;;;;;5019471;28;20029;-58
2022/01/25 09:56:33;;;;;;;6.65;6.00;;;;;;;;;;5014319;28;20080;-59
2022/01/25 09:58:59;;;;;;;5.15;4.75;;;;;;;;;;5018948;28;20467;-58
2022/01/25 10:01:27;;;;;;;8.30;6.68;;;;;;;;;;5014068;28;20037;-58
2022/01/25 10:03:52;;;;;;;13.32;7.85;;;;;;;;;;5014781;28;20099;-58
2022/01/25 10:06:20;;;;;;;14.45;10.35;;;;;;;;;;5015311;28;20041;-58
2022/01/25 10:08:50;;;;;;;11.00;7.80;;;;;;;;;;5016140;28;20033;-59
2022/01/25 10:11:16;;;;;;;71.55;27.25;;;;;;;;;;5015778;28;20098;-58
2022/01/25 10:13:49;;;;;;;8.82;7.53;;;;;;;;;;5014679;28;20065;-59
2022/01/25 10:16:36;;;;;;;6.43;5.85;;;;;;;;;;5018161;28;20149;-58
2022/01/25 10:19:07;;;;;;;11.35;8.35;;;;;;;;;;5016446;28;20129;-60
2022/01/25 10:21:35;;;;;;;11.15;7.90;;;;;;;;;;5015197;28;20030;-58
2022/01/25 10:24:14;;;;;;;14.73;8.55;;;;;;;;;;5015324;28;20128;-59
2022/01/25 10:26:40;;;;;;;5.95;5.35;;;;;;;;;;5016538;28;20037;-59
2022/01/25 10:29:11;;;;;;;9.43;8.23;;;;;;;;;;5014207;28;20045;-59
2022/01/25 10:31:38;;;;;;;12.25;7.85;;;;;;;;;;5014611;28;20037;-58
2022/01/25 10:34:08;;;;;;;7.53;6.75;;;;;;;;;;5014862;28;20117;-58
2022/01/25 10:36:42;;;;;;;6.43;5.75;;;;;;;;;;5017742;28;20050;-58
2022/01/25 10:39:07;;;;;;;9.00;6.35;;;;;;;;;;5019200;28;20738;-59
2022/01/25 10:41:33;;;;;;;11.90;8.10;;;;;;;;;;5015225;28;20061;-59
2022/01/25 10:43:58;;;;;;;5.20;4.70;;;;;;;;;;5013276;28;20041;-59
2022/01/25 10:46:29;;;;;;;9.70;6.13;;;;;;;;;;5017293;28;20033;-59
2022/01/25 10:49:08;;;;;;;10.07;8.93;;;;;;;;;;5015898;28;20215;-59
2022/01/25 10:51:40;;;;;;;12.35;6.60;;;;;;;;;;5017924;28;20577;-61
2022/01/25 10:54:24;;;;;;;9.90;6.18;;;;;;;;;;5017014;28;20045;-59
2022/01/25 10:56:54;;;;;;;12.45;6.55;;;;;;;;;;5013877;28;20034;-59
2022/01/25 10:59:32;;;;;;;9.68;5.82;;;;;;;;;;5016391;28;20076;-58
2022/01/25 11:02:04;;;;;;;7.30;6.28;;;;;;;;;;5013522;28;20091;-58
2022/01/25 11:04:34;;;;;;;4.97;4.55;;;;;;;;;;5014376;28;20364;-58
2022/01/25 11:07:05;;;;;;;7.85;6.28;;;;;;;;;;5014797;28;20223;-58
2022/01/25 11:09:37;;;;;;;9.32;6.07;;;;;;;;;;5012517;28;20052;-58
2022/01/25 11:12:05;;;;;;;8.70;6.80;;;;;;;;;;5015417;28;20344;-59
2022/01/25 11:17:15;;;;;;;12.00;6.55;;;;;;;;;;5015051;28;20167;-58
2022/01/25 11:19:41;;;;;;;7.85;7.10;;;;;;;;;;5009814;28;20132;-58
2022/01/25 11:22:10;;;;;;;9.23;7.05;;;;;;;;;;5011013;28;20026;-58
2022/01/25 11:24:37;;;;;;;8.02;6.10;;;;;;;;;;5009020;28;20030;-58
2022/01/25 11:27:05;;;;;;;9.60;7.18;;;;;;;;;;5010287;28;20032;-58
2022/01/25 11:29:34;;;;;;;6.50;5.82;;;;;;;;;;5014301;28;20033;-58
2022/01/25 11:32:07;;;;;;;6.15;5.32;;;;;;;;;;5009099;28;20052;-58
2022/01/25 11:34:35;;;;;;;13.35;6.10;;;;;;;;;;5007651;28;20063;-58
2022/01/25 11:37:04;;;;;;;10.98;6.05;;;;;;;;;;5008858;28;20069;-59
2022/01/25 11:39:30;;;;;;;8.00;7.20;;;;;;;;;;5011605;28;20833;-61
2022/01/25 11:42:07;;;;;;;8.65;6.60;;;;;;;;;;5015296;28;20029;-58
2022/01/25 11:44:33;;;;;;;11.57;6.75;;;;;;;;;;5016575;28;20341;-58
2022/01/25 11:47:12;;;;;;;7.60;5.95;;;;;;;;;;5013629;28;20048;-59
2022/01/25 11:49:54;;;;;;;6.28;5.60;;;;;;;;;;5014231;28;20364;-61
2022/01/25 11:52:21;;;;;;;7.53;6.78;;;;;;;;;;5013375;28;20038;-60
2022/01/25 11:54:50;;;;;;;7.95;7.20;;;;;;;;;;5013831;28;20036;-59
2022/01/25 11:57:19;;;;;;;6.60;5.75;;;;;;;;;;5012317;28;20042;-60
2022/01/25 11:59:57;;;;;;;10.80;6.95;;;;;;;;;;5013054;28;20041;-60
2022/01/25 12:02:46;;;;;;;8.45;6.63;;;;;;;;;;5013989;28;20471;-60
2022/01/25 12:05:15;;;;;;;9.27;7.43;;;;;;;;;;5014641;28;20523;-60
2022/01/25 12:08:08;;;;;;;9.52;6.10;;;;;;;;;;5011655;28;20038;-60
2022/01/25 12:10:41;;;;;;;11.60;7.50;;;;;;;;;;5001240;28;20120;-59
2022/01/25 12:13:21;;;;;;;12.82;6.70;;;;;;;;;;5012255;28;20026;-60
2022/01/25 12:16:28;;;;;;;9.38;7.22;;;;;;;;;;5012171;28;20045;-60
2022/01/25 12:19:05;;;;;;;13.63;8.55;;;;;;;;;;5016770;28;20029;-60
2022/01/25 12:21:50;;;;;;;10.75;8.02;;;;;;;;;;5012020;28;20041;-59
2022/01/25 12:24:27;;;;;;;8.10;6.82;;;;;;;;;;5013838;28;20137;-59
2022/01/25 12:27:28;;;;;;;8.23;6.97;;;;;;;;;;5014319;28;20034;-59
2022/01/25 12:30:08;;;;;;;9.40;7.80;;;;;;;;;;5013536;28;20038;-59
2022/01/25 12:33:00;;;;;;;12.00;9.60;;;;;;;;;;5012872;28;20038;-59
2022/01/25 12:35:44;;;;;;;9.32;7.03;;;;;;;;;;5013055;28;20033;-60
2022/01/25 12:38:20;;;;;;;9.57;6.70;;;;;;;;;;5011859;28;20709;-59
2022/01/25 12:41:06;;;;;;;8.05;6.22;;;;;;;;;;5014473;28;20063;-59
2022/01/25 12:43:44;;;;;;;18.60;12.63;;;;;;;;;;5012402;28;20118;-60
2022/01/25 12:46:16;;;;;;;14.88;7.93;;;;;;;;;;5009094;28;20077;-59
2022/01/25 12:48:48;;;;;;;9.75;8.93;;;;;;;;;;5013866;28;20034;-60
2022/01/25 12:51:17;;;;;;;7.75;7.05;;;;;;;;;;5014169;28;20096;-59
2022/01/25 12:53:45;;;;;;;8.68;7.75;;;;;;;;;;4993449;28;20038;-59
2022/01/25 12:56:14;;;;;;;9.02;7.65;;;;;;;;;;5014376;28;20033;-59
2022/01/25 12:58:40;;;;;;;8.52;7.43;;;;;;;;;;5010189;28;20037;-59
2022/01/25 13:01:11;;;;;;;10.98;7.07;;;;;;;;;;5011033;28;20033;-59
2022/01/25 13:03:51;;;;;;;8.55;7.68;;;;;;;;;;5011553;28;20050;-60
2022/01/25 13:06:25;;;;;;;7.32;6.32;;;;;;;;;;5012095;28;20656;-58
2022/01/25 13:09:22;;;;;;;10.55;8.07;;;;;;;;;;5013476;28;20042;-59
2022/01/25 13:17:15;;;;;;;8.10;6.72;;;;;;;;;;5011450;28;20033;-60
2022/01/25 13:19:46;;;;;;;9.07;8.13;;;;;;;;;;5013858;28;20044;-59
2022/01/25 13:22:16;;;;;;;12.50;8.40;;;;;;;;;;5011218;28;20443;-59
2022/01/25 13:24:55;;;;;;;12.32;8.43;;;;;;;;;;5011113;28;20099;-60
2022/01/25 13:27:21;;;;;;;9.65;8.70;;;;;;;;;;5012124;28;20029;-59
2022/01/25 13:32:50;;;;;;;9.80;7.47;;;;;;;;;;5009247;28;20029;-59
2022/01/25 13:35:25;;;;;;;8.55;6.40;;;;;;;;;;5011071;28;20048;-60
2022/01/25 13:38:22;;;;;;;7.88;7.00;;;;;;;;;;5010629;28;20064;-59
2022/01/25 13:40:56;;;;;;;11.43;7.50;;;;;;;;;;5010249;28;20135;-59
2022/01/25 13:46:04;;;;;;;8.55;5.30;;;;;;;;;;5008748;28;20029;-59
2022/01/25 13:48:31;;;;;;;10.65;7.50;;;;;;;;;;5012172;28;20049;-59
2022/01/25 13:51:02;;;;;;;8.77;7.40;;;;;;;;;;5009969;28;20045;-59
2022/01/25 13:53:28;;;;;;;11.02;9.88;;;;;;;;;;5008135;28;20057;-59
2022/01/25 13:55:56;;;;;;;11.02;9.27;;;;;;;;;;5010163;28;20172;-59
2022/01/25 13:58:22;;;;;;;16.05;8.80;;;;;;;;;;5008866;28;20099;-59
2022/01/25 14:00:48;;;;;;;12.27;7.55;;;;;;;;;;5008851;28;20069;-59
2022/01/25 14:03:15;;;;;;;9.95;8.48;;;;;;;;;;5009214;28;20030;-59
2022/01/25 14:05:41;;;;;;;7.93;7.10;;;;;;;;;;5010288;28;20084;-59
2022/01/25 14:08:06;;;;;;;11.00;6.45;;;;;;;;;;5012470;28;20033;-59
2022/01/25 14:10:32;;;;;;;12.63;7.57;;;;;;;;;;5009556;28;20623;-59
2022/01/25 14:21:57;;;;;;;11.40;6.90;;;;;;;;;;5008939;28;20287;-59
2022/01/25 14:24:32;;;;;;;9.13;8.07;;;;;;;;;;5010418;28;20061;-59
2022/01/25 14:26:58;;;;;;;9.40;7.82;;;;;;;;;;5011122;28;20410;-59
2022/01/25 14:29:24;;;;;;;13.98;11.57;;;;;;;;;;5010848;28;20107;-59
2022/01/25 14:31:50;;;;;;;8.52;6.97;;;;;;;;;;5011150;28;20029;-58
2022/01/25 14:34:18;;;;;;;11.90;9.55;;;;;;;;;;5010828;28;20515;-63
2022/01/25 14:36:47;;;;;;;8.77;7.78;;;;;;;;;;5010056;28;20038;-58
2022/01/25 14:39:15;;;;;;;13.45;9.38;;;;;;;;;;5012721;28;20040;-58
2022/01/25 14:41:40;;;;;;;10.40;8.07;;;;;;;;;;5011821;28;20048;-57
2022/01/25 14:44:22;;;;;;;15.35;9.52;;;;;;;;;;5009858;28;20033;-58
2022/01/25 14:46:51;;;;;;;22.58;10.45;;;;;;;;;;5007129;28;20088;-58
2022/01/25 14:49:24;;;;;;;13.32;9.70;;;;;;;;;;5008463;28;20132;-57
2022/01/25 14:52:01;;;;;;;19.40;11.23;;;;;;;;;;5009941;28;20116;-57
2022/01/25 14:54:28;;;;;;;13.32;9.90;;;;;;;;;;5011787;28;20033;-57
2022/01/25 14:56:56;;;;;;;11.63;8.68;;;;;;;;;;5009488;28;20034;-58
2022/01/25 15:02:10;;;;;;;9.07;8.18;;;;;;;;;;5009515;28;20037;-58
2022/01/25 15:04:40;;;;;;;15.05;9.55;;;;;;;;;;5009157;28;20084;-58
2022/01/25 15:07:09;;;;;;;10.30;7.80;;;;;;;;;;5010780;28;20041;-58
2022/01/25 15:09:36;;;;;;;25.33;9.10;;;;;;;;;;5010348;28;20026;-58
2022/01/25 15:12:02;;;;;;;13.65;9.23;;;;;;;;;;5008148;28;20045;-59
2022/01/25 15:14:37;;;;;;;10.35;7.93;;;;;;;;;;5013676;28;20048;-58
2022/01/25 15:17:03;;;;;;;14.85;9.07;;;;;;;;;;5016498;28;20049;-59
2022/01/25 15:19:28;;;;;;;13.77;8.93;;;;;;;;;;5016193;28;20038;-58
2022/01/25 15:21:53;;;;;;;18.75;9.57;;;;;;;;;;5012705;28;20486;-58
2022/01/25 15:24:23;;;;;;;23.85;10.60;;;;;;;;;;5013581;28;20124;-58
2022/01/25 15:26:53;;;;;;;14.43;8.32;;;;;;;;;;5013295;28;20029;-58
2022/01/25 15:29:23;;;;;;;10.45;9.00;;;;;;;;;;5013315;28;20048;-58
2022/01/25 15:31:51;;;;;;;30.70;11.77;;;;;;;;;;5014170;28;20398;-59
2022/01/25 15:34:16;;;;;;;16.40;10.70;;;;;;;;;;5013973;28;20029;-59
2022/01/25 15:36:43;;;;;;;10.98;8.55;;;;;;;;;;5010862;28;20435;-59
2022/01/25 15:39:09;;;;;;;16.50;10.32;;;;;;;;;;5013569;28;20652;-59
2022/01/25 15:41:35;;;;;;;28.23;7.82;;;;;;;;;;5011596;28;20034;-58
2022/01/25 15:44:00;;;;;;;12.38;8.68;;;;;;;;;;5014346;28;20625;-59
2022/01/25 15:46:44;;;;;;;14.35;9.82;;;;;;;;;;5010174;28;20022;-58
2022/01/25 15:49:09;;;;;;;8.68;6.90;;;;;;;;;;5013240;28;20475;-59
2022/01/25 15:51:35;;;;;;;9.30;8.32;;;;;;;;;;5012273;28;20120;-58
2022/01/25 15:54:00;;;;;;;14.45;8.88;;;;;;;;;;5012272;28;20057;-59
2022/01/25 15:56:27;;;;;;;15.70;9.25;;;;;;;;;;5011550;28;20037;-59
2022/01/25 15:58:53;;;;;;;17.10;8.95;;;;;;;;;;5015502;28;20084;-59
2022/01/25 16:01:18;;;;;;;8.77;7.82;;;;;;;;;;5013734;28;20096;-58
2022/01/25 16:03:44;;;;;;;10.55;8.93;;;;;;;;;;5012161;28;20038;-58
2022/01/25 16:06:10;;;;;;;9.65;8.35;;;;;;;;;;5011138;28;20807;-58
2022/01/25 16:08:36;;;;;;;14.90;9.82;;;;;;;;;;5013123;28;20038;-59
2022/01/25 16:11:12;;;;;;;14.35;9.30;;;;;;;;;;5013452;28;20034;-57
2022/01/25 16:13:38;;;;;;;14.35;9.68;;;;;;;;;;5012906;28;20049;-57
2022/01/25 16:16:03;;;;;;;14.48;8.45;;;;;;;;;;5011855;28;20033;-58
2022/01/25 16:18:29;;;;;;;22.50;9.20;;;;;;;;;;5011526;28;20116;-57
2022/01/25 16:20:55;;;;;;;12.63;9.60;;;;;;;;;;5012025;28;20037;-58
2022/01/25 16:23:20;;;;;;;8.93;8.10;;;;;;;;;;5012023;28;20051;-59
2022/01/25 16:25:46;;;;;;;7.82;7.13;;;;;;;;;;5012309;28;20028;-58
2022/01/25 16:28:11;;;;;;;11.50;10.32;;;;;;;;;;5012933;28;20037;-58
2022/01/25 16:30:37;;;;;;;15.52;9.48;;;;;;;;;;5012023;28;20427;-58
2022/01/25 16:33:04;;;;;;;19.25;13.13;;;;;;;;;;5010392;28;20037;-58
2022/01/25 16:35:30;;;;;;;14.57;8.45;;;;;;;;;;5010368;28;20056;-58
2022/01/25 16:37:55;;;;;;;13.52;10.95;;;;;;;;;;5012435;28;20029;-59
2022/01/25 16:40:21;;;;;;;10.30;9.25;;;;;;;;;;5016206;28;20151;-60
2022/01/25 16:42:47;;;;;;;11.88;8.32;;;;;;;;;;5012935;28;20041;-60
2022/01/25 16:45:15;;;;;;;10.50;8.02;;;;;;;;;;5014669;28;20025;-59
2022/01/25 16:47:41;;;;;;;12.63;9.10;;;;;;;;;;5012628;28;20601;-59
2022/01/25 16:50:10;;;;;;;17.67;11.70;;;;;;;;;;5014805;28;20029;-60
2022/01/25 16:52:37;;;;;;;33.00;23.73;;;;;;;;;;5014750;28;20048;-60
2022/01/25 16:55:04;;;;;;;14.07;9.88;;;;;;;;;;5014239;28;20034;-60